sensor_id;sensor_type;location;lat;lon;timestamp;P1;P2;P0
60645;PMS5003;46462;32.608;-117.032;2024-01-25T00:02:27;1;1;
60645;PMS5003;46462;32.608;-117.032;2024-01-25T00:04:58;0;0;
60645;PMS5003;46462;32.608;-117.032;2024-01-25T00:07:29;4;3;
60645;PMS5003;46462;32.608;-117.032;2024-01-25T00:10:00;2;2;
60645;PMS5003;46462;32.608;-117.032;2024-01-25T00:12:30;2;2;
60645;PMS5003;46462;32.608;-117.032;2024-01-25T00:15:01;2;2;
60645;PMS5003;46462;32.608;-117.032;2024-01-25T00:17:32;2;2;
60645;PMS5003;46462;32.608;-117.032;2024-01-25T00:20:08;1;1;
60645;PMS5003;46462;32.608;-117.032;2024-01-25T00:22:36;1;1;
60645;PMS5003;46462;32.608;-117.032;2024-01-25T00:25:06;1;1;
60645;PMS5003;46462;32.608;-117.032;2024-01-25T00:27:36;1;1;
60645;PMS5003;46462;32.608;-117.032;2024-01-25T00:30:07;2;2;
60645;PMS5003;46462;32.608;-117.032;2024-01-25T00:32:38;2;1;
60645;PMS5003;46462;32.608;-117.032;2024-01-25T00:35:09;2;2;
60645;PMS5003;46462;32.608;-117.032;2024-01-25T00:37:39;1;1;
60645;PMS5003;46462;32.608;-117.032;2024-01-25T00:40:10;2;2;
60645;PMS5003;46462;32.608;-117.032;2024-01-25T00:42:41;2;2;
60645;PMS5003;46462;32.608;-117.032;2024-01-25T00:45:12;1;1;
60645;PMS5003;46462;32.608;-117.032;2024-01-25T00:47:42;1;1;
60645;PMS5003;46462;32.608;-117.032;2024-01-25T00:50:13;1;1;
60645;PMS5003;46462;32.608;-117.032;2024-01-25T00:52:44;2;2;
60645;PMS5003;46462;32.608;-117.032;2024-01-25T00:55:15;2;1;
60645;PMS5003;46462;32.608;-117.032;2024-01-25T00:57:45;1;1;
60645;PMS5003;46462;32.608;-117.032;2024-01-25T01:00:16;3;2;
60645;PMS5003;46462;32.608;-117.032;2024-01-25T01:02:46;2;2;
60645;PMS5003;46462;32.608;-117.032;2024-01-25T01:05:17;2;2;
60645;PMS5003;46462;32.608;-117.032;2024-01-25T01:07:48;2;2;
60645;PMS5003;46462;32.608;-117.032;2024-01-25T01:10:18;1;1;
60645;PMS5003;46462;32.608;-117.032;2024-01-25T01:12:49;2;2;
60645;PMS5003;46462;32.608;-117.032;2024-01-25T01:15:20;2;1;
60645;PMS5003;46462;32.608;-117.032;2024-01-25T01:17:50;2;2;
60645;PMS5003;46462;32.608;-117.032;2024-01-25T01:20:21;1;1;
60645;PMS5003;46462;32.608;-117.032;2024-01-25T01:22:52;2;2;
60645;PMS5003;46462;32.608;-117.032;2024-01-25T01:25:23;1;1;
60645;PMS5003;46462;32.608;-117.032;2024-01-25T01:27:53;3;3;
60645;PMS5003;46462;32.608;-117.032;2024-01-25T01:30:24;2;2;
60645;PMS5003;46462;32.608;-117.032;2024-01-25T01:32:55;1;1;
60645;PMS5003;46462;32.608;-117.032;2024-01-25T01:35:26;0;0;
60645;PMS5003;46462;32.608;-117.032;2024-01-25T01:37:56;4;3;
60645;PMS5003;46462;32.608;-117.032;2024-01-25T01:40:27;3;2;
60645;PMS5003;46462;32.608;-117.032;2024-01-25T01:42:59;2;2;
60645;PMS5003;46462;32.608;-117.032;2024-01-25T01:45:28;2;2;
60645;PMS5003;46462;32.608;-117.032;2024-01-25T01:47:59;2;1;
60645;PMS5003;46462;32.608;-117.032;2024-01-25T01:50:30;1;1;
60645;PMS5003;46462;32.608;-117.032;2024-01-25T01:53:00;2;1;
60645;PMS5003;46462;32.608;-117.032;2024-01-25T01:55:31;1;1;
60645;PMS5003;46462;32.608;-117.032;2024-01-25T01:58:02;1;1;
60645;PMS5003;46462;32.608;-117.032;2024-01-25T02:00:33;2;1;
60645;PMS5003;46462;32.608;-117.032;2024-01-25T02:03:03;2;2;
60645;PMS5003;46462;32.608;-117.032;2024-01-25T02:05:34;1;1;
60645;PMS5003;46462;32.608;-117.032;2024-01-25T02:08:05;2;2;
60645;PMS5003;46462;32.608;-117.032;2024-01-25T02:10:36;1;0;
60645;PMS5003;46462;32.608;-117.032;2024-01-25T02:13:06;3;3;
60645;PMS5003;46462;32.608;-117.032;2024-01-25T02:15:37;1;1;
60645;PMS5003;46462;32.608;-117.032;2024-01-25T02:18:08;2;1;
60645;PMS5003;46462;32.608;-117.032;2024-01-25T02:20:38;0;0;
60645;PMS5003;46462;32.608;-117.032;2024-01-25T02:23:09;2;2;
60645;PMS5003;46462;32.608;-117.032;2024-01-25T02:25:40;1;1;
60645;PMS5003;46462;32.608;-117.032;2024-01-25T02:28:10;3;3;
60645;PMS5003;46462;32.608;-117.032;2024-01-25T02:30:41;2;2;
60645;PMS5003;46462;32.608;-117.032;2024-01-25T02:33:12;2;2;
60645;PMS5003;46462;32.608;-117.032;2024-01-25T02:35:42;1;1;
60645;PMS5003;46462;32.608;-117.032;2024-01-25T02:38:13;2;2;
60645;PMS5003;46462;32.608;-117.032;2024-01-25T02:40:44;1;1;
60645;PMS5003;46462;32.608;-117.032;2024-01-25T02:43:15;2;2;
60645;PMS5003;46462;32.608;-117.032;2024-01-25T02:45:45;1;1;
60645;PMS5003;46462;32.608;-117.032;2024-01-25T02:48:16;1;1;
60645;PMS5003;46462;32.608;-117.032;2024-01-25T02:50:47;1;1;
60645;PMS5003;46462;32.608;-117.032;2024-01-25T02:53:17;2;2;
60645;PMS5003;46462;32.608;-117.032;2024-01-25T02:55:48;1;1;
60645;PMS5003;46462;32.608;-117.032;2024-01-25T02:58:19;1;1;
60645;PMS5003;46462;32.608;-117.032;2024-01-25T03:00:50;3;2;
60645;PMS5003;46462;32.608;-117.032;2024-01-25T03:03:20;0;0;
60645;PMS5003;46462;32.608;-117.032;2024-01-25T03:05:51;1;0;
60645;PMS5003;46462;32.608;-117.032;2024-01-25T03:08:22;1;1;
60645;PMS5003;46462;32.608;-117.032;2024-01-25T03:10:52;2;2;
60645;PMS5003;46462;32.608;-117.032;2024-01-25T03:13:23;2;2;
60645;PMS5003;46462;32.608;-117.032;2024-01-25T03:15:54;1;1;
60645;PMS5003;46462;32.608;-117.032;2024-01-25T03:18:25;2;1;
60645;PMS5003;46462;32.608;-117.032;2024-01-25T03:20:55;0;0;
60645;PMS5003;46462;32.608;-117.032;2024-01-25T03:23:26;3;2;
60645;PMS5003;46462;32.608;-117.032;2024-01-25T03:26:01;0;0;
60645;PMS5003;46462;32.608;-117.032;2024-01-25T03:28:28;2;2;
60645;PMS5003;46462;32.608;-117.032;2024-01-25T03:30:58;3;2;
60645;PMS5003;46462;32.608;-117.032;2024-01-25T03:33:29;1;1;
60645;PMS5003;46462;32.608;-117.032;2024-01-25T03:36:01;0;0;
60645;PMS5003;46462;32.608;-117.032;2024-01-25T03:38:30;0;0;
60645;PMS5003;46462;32.608;-117.032;2024-01-25T03:41:01;3;3;
60645;PMS5003;46462;32.608;-117.032;2024-01-25T03:43:32;0;0;
60645;PMS5003;46462;32.608;-117.032;2024-01-25T03:46:03;1;1;
60645;PMS5003;46462;32.608;-117.032;2024-01-25T03:48:33;1;1;
60645;PMS5003;46462;32.608;-117.032;2024-01-25T03:51:04;1;1;
60645;PMS5003;46462;32.608;-117.032;2024-01-25T03:53:35;1;0;
60645;PMS5003;46462;32.608;-117.032;2024-01-25T03:56:10;1;1;
60645;PMS5003;46462;32.608;-117.032;2024-01-25T03:58:36;1;1;
60645;PMS5003;46462;32.608;-117.032;2024-01-25T04:01:07;3;2;
60645;PMS5003;46462;32.608;-117.032;2024-01-25T04:03:38;1;1;
60645;PMS5003;46462;32.608;-117.032;2024-01-25T04:06:08;1;1;
60645;PMS5003;46462;32.608;-117.032;2024-01-25T04:08:39;1;1;
60645;PMS5003;46462;32.608;-117.032;2024-01-25T04:11:10;2;2;
60645;PMS5003;46462;32.608;-117.032;2024-01-25T04:13:41;1;1;
60645;PMS5003;46462;32.608;-117.032;2024-01-25T04:16:14;1;1;
60645;PMS5003;46462;32.608;-117.032;2024-01-25T04:18:42;0;0;
60645;PMS5003;46462;32.608;-117.032;2024-01-25T04:21:13;0;0;
60645;PMS5003;46462;32.608;-117.032;2024-01-25T04:23:44;3;2;
60645;PMS5003;46462;32.608;-117.032;2024-01-25T04:26:14;2;1;
60645;PMS5003;46462;32.608;-117.032;2024-01-25T04:28:45;1;1;
60645;PMS5003;46462;32.608;-117.032;2024-01-25T04:31:16;3;2;
60645;PMS5003;46462;32.608;-117.032;2024-01-25T04:33:46;1;1;
60645;PMS5003;46462;32.608;-117.032;2024-01-25T04:36:17;1;1;
60645;PMS5003;46462;32.608;-117.032;2024-01-25T04:38:48;1;1;
60645;PMS5003;46462;32.608;-117.032;2024-01-25T04:41:19;2;2;
60645;PMS5003;46462;32.608;-117.032;2024-01-25T04:43:49;1;1;
60645;PMS5003;46462;32.608;-117.032;2024-01-25T04:46:20;0;0;
60645;PMS5003;46462;32.608;-117.032;2024-01-25T04:48:51;1;0;
60645;PMS5003;46462;32.608;-117.032;2024-01-25T04:51:22;1;1;
60645;PMS5003;46462;32.608;-117.032;2024-01-25T04:53:52;0;0;
60645;PMS5003;46462;32.608;-117.032;2024-01-25T04:56:23;1;1;
60645;PMS5003;46462;32.608;-117.032;2024-01-25T04:58:54;2;2;
60645;PMS5003;46462;32.608;-117.032;2024-01-25T05:01:24;3;3;
60645;PMS5003;46462;32.608;-117.032;2024-01-25T05:03:55;4;3;
60645;PMS5003;46462;32.608;-117.032;2024-01-25T05:06:26;2;2;
60645;PMS5003;46462;32.608;-117.032;2024-01-25T05:08:56;1;1;
60645;PMS5003;46462;32.608;-117.032;2024-01-25T05:11:27;2;2;
60645;PMS5003;46462;32.608;-117.032;2024-01-25T05:13:58;1;1;
60645;PMS5003;46462;32.608;-117.032;2024-01-25T05:16:29;0;0;
60645;PMS5003;46462;32.608;-117.032;2024-01-25T05:18:59;2;2;
60645;PMS5003;46462;32.608;-117.032;2024-01-25T05:21:30;2;1;
60645;PMS5003;46462;32.608;-117.032;2024-01-25T05:24:01;3;3;
60645;PMS5003;46462;32.608;-117.032;2024-01-25T05:26:31;2;2;
60645;PMS5003;46462;32.608;-117.032;2024-01-25T05:29:02;2;2;
60645;PMS5003;46462;32.608;-117.032;2024-01-25T05:31:33;2;2;
60645;PMS5003;46462;32.608;-117.032;2024-01-25T05:34:04;2;2;
60645;PMS5003;46462;32.608;-117.032;2024-01-25T05:36:34;2;2;
60645;PMS5003;46462;32.608;-117.032;2024-01-25T05:39:05;2;2;
60645;PMS5003;46462;32.608;-117.032;2024-01-25T05:41:36;2;2;
60645;PMS5003;46462;32.608;-117.032;2024-01-25T05:44:06;1;1;
60645;PMS5003;46462;32.608;-117.032;2024-01-25T05:46:37;3;2;
60645;PMS5003;46462;32.608;-117.032;2024-01-25T05:49:08;2;2;
60645;PMS5003;46462;32.608;-117.032;2024-01-25T05:51:39;3;2;
60645;PMS5003;46462;32.608;-117.032;2024-01-25T05:54:09;3;2;
60645;PMS5003;46462;32.608;-117.032;2024-01-25T05:56:40;2;2;
60645;PMS5003;46462;32.608;-117.032;2024-01-25T05:59:11;2;2;
60645;PMS5003;46462;32.608;-117.032;2024-01-25T06:01:42;2;2;
60645;PMS5003;46462;32.608;-117.032;2024-01-25T06:04:12;2;2;
60645;PMS5003;46462;32.608;-117.032;2024-01-25T06:06:43;2;2;
60645;PMS5003;46462;32.608;-117.032;2024-01-25T06:09:14;2;2;
60645;PMS5003;46462;32.608;-117.032;2024-01-25T06:11:44;3;3;
60645;PMS5003;46462;32.608;-117.032;2024-01-25T06:14:15;2;2;
60645;PMS5003;46462;32.608;-117.032;2024-01-25T06:16:46;2;1;
60645;PMS5003;46462;32.608;-117.032;2024-01-25T06:19:17;2;2;
60645;PMS5003;46462;32.608;-117.032;2024-01-25T06:21:47;2;2;
60645;PMS5003;46462;32.608;-117.032;2024-01-25T06:24:18;4;4;
60645;PMS5003;46462;32.608;-117.032;2024-01-25T06:26:49;2;2;
60645;PMS5003;46462;32.608;-117.032;2024-01-25T06:29:20;1;1;
60645;PMS5003;46462;32.608;-117.032;2024-01-25T06:31:50;3;3;
60645;PMS5003;46462;32.608;-117.032;2024-01-25T06:34:21;3;3;
60645;PMS5003;46462;32.608;-117.032;2024-01-25T06:36:52;2;2;
60645;PMS5003;46462;32.608;-117.032;2024-01-25T06:39:22;2;2;
60645;PMS5003;46462;32.608;-117.032;2024-01-25T06:41:53;3;3;
60645;PMS5003;46462;32.608;-117.032;2024-01-25T06:44:24;3;3;
60645;PMS5003;46462;32.608;-117.032;2024-01-25T06:46:55;2;2;
60645;PMS5003;46462;32.608;-117.032;2024-01-25T06:49:25;1;1;
60645;PMS5003;46462;32.608;-117.032;2024-01-25T06:51:56;2;2;
60645;PMS5003;46462;32.608;-117.032;2024-01-25T06:54:27;2;2;
60645;PMS5003;46462;32.608;-117.032;2024-01-25T06:56:58;1;1;
60645;PMS5003;46462;32.608;-117.032;2024-01-25T06:59:28;2;2;
60645;PMS5003;46462;32.608;-117.032;2024-01-25T07:01:59;3;3;
60645;PMS5003;46462;32.608;-117.032;2024-01-25T07:04:30;2;2;
60645;PMS5003;46462;32.608;-117.032;2024-01-25T07:07:01;3;3;
60645;PMS5003;46462;32.608;-117.032;2024-01-25T07:09:31;3;3;
60645;PMS5003;46462;32.608;-117.032;2024-01-25T07:12:02;2;2;
60645;PMS5003;46462;32.608;-117.032;2024-01-25T07:14:32;2;2;
60645;PMS5003;46462;32.608;-117.032;2024-01-25T07:17:03;3;3;
60645;PMS5003;46462;32.608;-117.032;2024-01-25T07:19:34;3;3;
60645;PMS5003;46462;32.608;-117.032;2024-01-25T07:22:05;2;1;
60645;PMS5003;46462;32.608;-117.032;2024-01-25T07:24:35;2;2;
60645;PMS5003;46462;32.608;-117.032;2024-01-25T07:27:06;1;1;
60645;PMS5003;46462;32.608;-117.032;2024-01-25T07:29:37;4;3;
60645;PMS5003;46462;32.608;-117.032;2024-01-25T07:32:08;3;3;
60645;PMS5003;46462;32.608;-117.032;2024-01-25T07:34:38;2;2;
60645;PMS5003;46462;32.608;-117.032;2024-01-25T07:37:09;1;1;
60645;PMS5003;46462;32.608;-117.032;2024-01-25T07:39:40;0;0;
60645;PMS5003;46462;32.608;-117.032;2024-01-25T07:42:11;3;3;
60645;PMS5003;46462;32.608;-117.032;2024-01-25T07:44:41;2;2;
60645;PMS5003;46462;32.608;-117.032;2024-01-25T07:47:12;2;2;
60645;PMS5003;46462;32.608;-117.032;2024-01-25T07:49:43;1;1;
60645;PMS5003;46462;32.608;-117.032;2024-01-25T07:52:14;2;2;
60645;PMS5003;46462;32.608;-117.032;2024-01-25T07:54:44;2;2;
60645;PMS5003;46462;32.608;-117.032;2024-01-25T07:57:15;3;3;
60645;PMS5003;46462;32.608;-117.032;2024-01-25T07:59:46;2;2;
60645;PMS5003;46462;32.608;-117.032;2024-01-25T08:02:17;2;2;
60645;PMS5003;46462;32.608;-117.032;2024-01-25T08:04:47;3;3;
60645;PMS5003;46462;32.608;-117.032;2024-01-25T08:07:18;3;3;
60645;PMS5003;46462;32.608;-117.032;2024-01-25T08:09:49;0;0;
60645;PMS5003;46462;32.608;-117.032;2024-01-25T08:12:19;3;3;
60645;PMS5003;46462;32.608;-117.032;2024-01-25T08:14:50;4;4;
60645;PMS5003;46462;32.608;-117.032;2024-01-25T08:17:21;2;2;
60645;PMS5003;46462;32.608;-117.032;2024-01-25T08:19:52;2;2;
60645;PMS5003;46462;32.608;-117.032;2024-01-25T08:22:22;3;3;
60645;PMS5003;46462;32.608;-117.032;2024-01-25T08:24:53;3;3;
60645;PMS5003;46462;32.608;-117.032;2024-01-25T08:27:24;3;3;
60645;PMS5003;46462;32.608;-117.032;2024-01-25T08:29:55;3;3;
60645;PMS5003;46462;32.608;-117.032;2024-01-25T08:32:25;3;3;
60645;PMS5003;46462;32.608;-117.032;2024-01-25T08:34:56;3;3;
60645;PMS5003;46462;32.608;-117.032;2024-01-25T08:37:27;3;3;
60645;PMS5003;46462;32.608;-117.032;2024-01-25T08:39:58;3;3;
60645;PMS5003;46462;32.608;-117.032;2024-01-25T08:42:28;2;2;
60645;PMS5003;46462;32.608;-117.032;2024-01-25T08:44:59;4;3;
60645;PMS5003;46462;32.608;-117.032;2024-01-25T08:47:30;2;2;
60645;PMS5003;46462;32.608;-117.032;2024-01-25T08:50:01;2;2;
60645;PMS5003;46462;32.608;-117.032;2024-01-25T08:52:31;2;2;
60645;PMS5003;46462;32.608;-117.032;2024-01-25T08:55:06;3;2;
60645;PMS5003;46462;32.608;-117.032;2024-01-25T08:57:36;2;2;
60645;PMS5003;46462;32.608;-117.032;2024-01-25T09:00:06;3;3;
60645;PMS5003;46462;32.608;-117.032;2024-01-25T09:02:37;3;3;
60645;PMS5003;46462;32.608;-117.032;2024-01-25T09:05:08;2;2;
60645;PMS5003;46462;32.608;-117.032;2024-01-25T09:07:38;2;2;
60645;PMS5003;46462;32.608;-117.032;2024-01-25T09:10:09;2;2;
60645;PMS5003;46462;32.608;-117.032;2024-01-25T09:12:40;3;3;
60645;PMS5003;46462;32.608;-117.032;2024-01-25T09:15:10;2;2;
60645;PMS5003;46462;32.608;-117.032;2024-01-25T09:17:41;3;3;
60645;PMS5003;46462;32.608;-117.032;2024-01-25T09:20:12;3;3;
60645;PMS5003;46462;32.608;-117.032;2024-01-25T09:22:43;2;2;
60645;PMS5003;46462;32.608;-117.032;2024-01-25T09:25:13;2;2;
60645;PMS5003;46462;32.608;-117.032;2024-01-25T09:27:44;2;2;
60645;PMS5003;46462;32.608;-117.032;2024-01-25T09:30:15;3;2;
60645;PMS5003;46462;32.608;-117.032;2024-01-25T09:32:46;2;2;
60645;PMS5003;46462;32.608;-117.032;2024-01-25T09:35:16;3;3;
60645;PMS5003;46462;32.608;-117.032;2024-01-25T09:37:47;3;3;
60645;PMS5003;46462;32.608;-117.032;2024-01-25T09:40:18;2;2;
60645;PMS5003;46462;32.608;-117.032;2024-01-25T09:42:49;2;2;
60645;PMS5003;46462;32.608;-117.032;2024-01-25T09:45:19;2;2;
60645;PMS5003;46462;32.608;-117.032;2024-01-25T09:47:50;4;4;
60645;PMS5003;46462;32.608;-117.032;2024-01-25T09:50:21;4;4;
60645;PMS5003;46462;32.608;-117.032;2024-01-25T09:52:53;2;2;
60645;PMS5003;46462;32.608;-117.032;2024-01-25T09:55:23;3;3;
60645;PMS5003;46462;32.608;-117.032;2024-01-25T09:57:54;1;1;
60645;PMS5003;46462;32.608;-117.032;2024-01-25T10:00:24;3;2;
60645;PMS5003;46462;32.608;-117.032;2024-01-25T10:02:55;3;3;
60645;PMS5003;46462;32.608;-117.032;2024-01-25T10:05:25;3;3;
60645;PMS5003;46462;32.608;-117.032;2024-01-25T10:07:56;3;3;
60645;PMS5003;46462;32.608;-117.032;2024-01-25T10:10:27;2;2;
60645;PMS5003;46462;32.608;-117.032;2024-01-25T10:12:57;3;3;
60645;PMS5003;46462;32.608;-117.032;2024-01-25T10:15:28;3;3;
60645;PMS5003;46462;32.608;-117.032;2024-01-25T10:17:59;4;3;
60645;PMS5003;46462;32.608;-117.032;2024-01-25T10:20:31;4;3;
60645;PMS5003;46462;32.608;-117.032;2024-01-25T10:23:00;5;5;
60645;PMS5003;46462;32.608;-117.032;2024-01-25T10:25:33;2;2;
60645;PMS5003;46462;32.608;-117.032;2024-01-25T10:28:02;2;2;
60645;PMS5003;46462;32.608;-117.032;2024-01-25T10:30:33;4;4;
60645;PMS5003;46462;32.608;-117.032;2024-01-25T10:33:03;3;3;
60645;PMS5003;46462;32.608;-117.032;2024-01-25T10:35:34;3;3;
60645;PMS5003;46462;32.608;-117.032;2024-01-25T10:38:05;4;4;
60645;PMS5003;46462;32.608;-117.032;2024-01-25T10:40:35;3;3;
60645;PMS5003;46462;32.608;-117.032;2024-01-25T10:43:06;3;3;
60645;PMS5003;46462;32.608;-117.032;2024-01-25T10:45:37;3;3;
60645;PMS5003;46462;32.608;-117.032;2024-01-25T10:48:08;4;4;
60645;PMS5003;46462;32.608;-117.032;2024-01-25T10:50:38;5;5;
60645;PMS5003;46462;32.608;-117.032;2024-01-25T10:53:09;5;4;
60645;PMS5003;46462;32.608;-117.032;2024-01-25T10:55:40;4;4;
60645;PMS5003;46462;32.608;-117.032;2024-01-25T10:58:12;3;3;
60645;PMS5003;46462;32.608;-117.032;2024-01-25T11:00:41;6;6;
60645;PMS5003;46462;32.608;-117.032;2024-01-25T11:03:12;5;4;
60645;PMS5003;46462;32.608;-117.032;2024-01-25T11:05:42;3;3;
60645;PMS5003;46462;32.608;-117.032;2024-01-25T11:08:18;6;5;
60645;PMS5003;46462;32.608;-117.032;2024-01-25T11:10:46;4;4;
60645;PMS5003;46462;32.608;-117.032;2024-01-25T11:13:15;3;3;
60645;PMS5003;46462;32.608;-117.032;2024-01-25T11:15:45;3;3;
60645;PMS5003;46462;32.608;-117.032;2024-01-25T11:18:16;5;5;
60645;PMS5003;46462;32.608;-117.032;2024-01-25T11:20:47;4;4;
60645;PMS5003;46462;32.608;-117.032;2024-01-25T11:23:18;4;3;
60645;PMS5003;46462;32.608;-117.032;2024-01-25T11:25:48;4;4;
60645;PMS5003;46462;32.608;-117.032;2024-01-25T11:28:19;4;4;
60645;PMS5003;46462;32.608;-117.032;2024-01-25T11:30:50;5;5;
60645;PMS5003;46462;32.608;-117.032;2024-01-25T11:33:21;6;5;
60645;PMS5003;46462;32.608;-117.032;2024-01-25T11:35:54;6;6;
60645;PMS5003;46462;32.608;-117.032;2024-01-25T11:38:22;5;5;
60645;PMS5003;46462;32.608;-117.032;2024-01-25T11:40:56;5;5;
60645;PMS5003;46462;32.608;-117.032;2024-01-25T11:43:24;6;6;
60645;PMS5003;46462;32.608;-117.032;2024-01-25T11:45:54;6;5;
60645;PMS5003;46462;32.608;-117.032;2024-01-25T11:48:27;5;5;
60645;PMS5003;46462;32.608;-117.032;2024-01-25T11:50:56;9;8;
60645;PMS5003;46462;32.608;-117.032;2024-01-25T11:53:26;4;4;
60645;PMS5003;46462;32.608;-117.032;2024-01-25T11:55:57;7;7;
60645;PMS5003;46462;32.608;-117.032;2024-01-25T11:58:28;5;5;
60645;PMS5003;46462;32.608;-117.032;2024-01-25T12:00:59;6;6;
60645;PMS5003;46462;32.608;-117.032;2024-01-25T12:03:29;6;6;
60645;PMS5003;46462;32.608;-117.032;2024-01-25T12:06:00;6;6;
60645;PMS5003;46462;32.608;-117.032;2024-01-25T12:08:31;6;6;
60645;PMS5003;46462;32.608;-117.032;2024-01-25T12:11:03;5;5;
60645;PMS5003;46462;32.608;-117.032;2024-01-25T12:13:33;6;6;
60645;PMS5003;46462;32.608;-117.032;2024-01-25T12:16:03;9;7;
60645;PMS5003;46462;32.608;-117.032;2024-01-25T12:18:34;6;6;
60645;PMS5003;46462;32.608;-117.032;2024-01-25T12:21:05;6;6;
60645;PMS5003;46462;32.608;-117.032;2024-01-25T12:23:36;5;5;
60645;PMS5003;46462;32.608;-117.032;2024-01-25T12:26:07;7;7;
60645;PMS5003;46462;32.608;-117.032;2024-01-25T12:28:36;4;4;
60645;PMS5003;46462;32.608;-117.032;2024-01-25T12:31:07;6;6;
60645;PMS5003;46462;32.608;-117.032;2024-01-25T12:33:37;5;5;
60645;PMS5003;46462;32.608;-117.032;2024-01-25T12:36:09;8;8;
60645;PMS5003;46462;32.608;-117.032;2024-01-25T12:38:39;6;6;
60645;PMS5003;46462;32.608;-117.032;2024-01-25T12:41:10;8;7;
60645;PMS5003;46462;32.608;-117.032;2024-01-25T12:43:40;6;6;
60645;PMS5003;46462;32.608;-117.032;2024-01-25T12:46:11;6;6;
60645;PMS5003;46462;32.608;-117.032;2024-01-25T12:48:42;5;5;
60645;PMS5003;46462;32.608;-117.032;2024-01-25T12:51:13;7;7;
60645;PMS5003;46462;32.608;-117.032;2024-01-25T12:53:43;8;8;
60645;PMS5003;46462;32.608;-117.032;2024-01-25T12:56:14;7;5;
60645;PMS5003;46462;32.608;-117.032;2024-01-25T12:58:45;6;6;
60645;PMS5003;46462;32.608;-117.032;2024-01-25T13:01:16;6;6;
60645;PMS5003;46462;32.608;-117.032;2024-01-25T13:03:47;6;6;
60645;PMS5003;46462;32.608;-117.032;2024-01-25T13:06:17;7;6;
60645;PMS5003;46462;32.608;-117.032;2024-01-25T13:08:48;8;7;
60645;PMS5003;46462;32.608;-117.032;2024-01-25T13:11:19;8;7;
60645;PMS5003;46462;32.608;-117.032;2024-01-25T13:13:50;6;6;
60645;PMS5003;46462;32.608;-117.032;2024-01-25T13:16:20;7;6;
60645;PMS5003;46462;32.608;-117.032;2024-01-25T13:18:51;7;7;
60645;PMS5003;46462;32.608;-117.032;2024-01-25T13:21:22;6;6;
60645;PMS5003;46462;32.608;-117.032;2024-01-25T13:23:53;8;6;
60645;PMS5003;46462;32.608;-117.032;2024-01-25T13:26:23;7;6;
60645;PMS5003;46462;32.608;-117.032;2024-01-25T13:28:54;6;6;
60645;PMS5003;46462;32.608;-117.032;2024-01-25T13:31:25;6;5;
60645;PMS5003;46462;32.608;-117.032;2024-01-25T13:33:55;7;7;
60645;PMS5003;46462;32.608;-117.032;2024-01-25T13:36:26;5;5;
60645;PMS5003;46462;32.608;-117.032;2024-01-25T13:38:57;6;5;
60645;PMS5003;46462;32.608;-117.032;2024-01-25T13:41:27;9;9;
60645;PMS5003;46462;32.608;-117.032;2024-01-25T13:43:58;7;7;
60645;PMS5003;46462;32.608;-117.032;2024-01-25T13:46:29;7;6;
60645;PMS5003;46462;32.608;-117.032;2024-01-25T13:49:00;7;7;
60645;PMS5003;46462;32.608;-117.032;2024-01-25T13:51:30;7;7;
60645;PMS5003;46462;32.608;-117.032;2024-01-25T13:54:01;7;7;
60645;PMS5003;46462;32.608;-117.032;2024-01-25T13:56:32;8;8;
60645;PMS5003;46462;32.608;-117.032;2024-01-25T13:59:03;7;7;
60645;PMS5003;46462;32.608;-117.032;2024-01-25T14:01:33;7;6;
60645;PMS5003;46462;32.608;-117.032;2024-01-25T14:04:04;8;6;
60645;PMS5003;46462;32.608;-117.032;2024-01-25T14:06:35;8;8;
60645;PMS5003;46462;32.608;-117.032;2024-01-25T14:09:05;9;9;
60645;PMS5003;46462;32.608;-117.032;2024-01-25T14:11:36;7;7;
60645;PMS5003;46462;32.608;-117.032;2024-01-25T14:14:07;6;5;
60645;PMS5003;46462;32.608;-117.032;2024-01-25T14:16:38;7;7;
60645;PMS5003;46462;32.608;-117.032;2024-01-25T14:19:09;6;6;
60645;PMS5003;46462;32.608;-117.032;2024-01-25T14:21:39;8;8;
60645;PMS5003;46462;32.608;-117.032;2024-01-25T14:24:10;7;7;
60645;PMS5003;46462;32.608;-117.032;2024-01-25T14:26:40;7;7;
60645;PMS5003;46462;32.608;-117.032;2024-01-25T14:29:12;5;5;
60645;PMS5003;46462;32.608;-117.032;2024-01-25T14:31:42;8;7;
60645;PMS5003;46462;32.608;-117.032;2024-01-25T14:34:13;9;8;
60645;PMS5003;46462;32.608;-117.032;2024-01-25T14:36:44;10;9;
60645;PMS5003;46462;32.608;-117.032;2024-01-25T14:39:14;8;6;
60645;PMS5003;46462;32.608;-117.032;2024-01-25T14:41:45;11;9;
60645;PMS5003;46462;32.608;-117.032;2024-01-25T14:44:16;7;6;
60645;PMS5003;46462;32.608;-117.032;2024-01-25T14:46:47;7;6;
60645;PMS5003;46462;32.608;-117.032;2024-01-25T14:49:17;6;6;
60645;PMS5003;46462;32.608;-117.032;2024-01-25T14:51:48;8;7;
60645;PMS5003;46462;32.608;-117.032;2024-01-25T14:54:19;5;5;
60645;PMS5003;46462;32.608;-117.032;2024-01-25T14:56:50;11;10;
60645;PMS5003;46462;32.608;-117.032;2024-01-25T14:59:20;7;7;
60645;PMS5003;46462;32.608;-117.032;2024-01-25T15:01:51;8;8;
60645;PMS5003;46462;32.608;-117.032;2024-01-25T15:04:22;13;11;
60645;PMS5003;46462;32.608;-117.032;2024-01-25T15:06:52;15;13;
60645;PMS5003;46462;32.608;-117.032;2024-01-25T15:09:23;12;12;
60645;PMS5003;46462;32.608;-117.032;2024-01-25T15:11:54;8;7;
60645;PMS5003;46462;32.608;-117.032;2024-01-25T15:14:25;10;9;
60645;PMS5003;46462;32.608;-117.032;2024-01-25T15:16:55;16;15;
60645;PMS5003;46462;32.608;-117.032;2024-01-25T15:19:26;15;15;
60645;PMS5003;46462;32.608;-117.032;2024-01-25T15:21:57;13;13;
60645;PMS5003;46462;32.608;-117.032;2024-01-25T15:24:27;13;13;
60645;PMS5003;46462;32.608;-117.032;2024-01-25T15:26:58;10;10;
60645;PMS5003;46462;32.608;-117.032;2024-01-25T15:29:29;13;13;
60645;PMS5003;46462;32.608;-117.032;2024-01-25T15:32:00;12;11;
60645;PMS5003;46462;32.608;-117.032;2024-01-25T15:34:30;14;13;
60645;PMS5003;46462;32.608;-117.032;2024-01-25T15:37:01;14;14;
60645;PMS5003;46462;32.608;-117.032;2024-01-25T15:39:31;14;12;
60645;PMS5003;46462;32.608;-117.032;2024-01-25T15:42:02;11;11;
60645;PMS5003;46462;32.608;-117.032;2024-01-25T15:44:33;13;13;
60645;PMS5003;46462;32.608;-117.032;2024-01-25T15:47:03;14;14;
60645;PMS5003;46462;32.608;-117.032;2024-01-25T15:49:34;10;10;
60645;PMS5003;46462;32.608;-117.032;2024-01-25T15:52:05;11;11;
60645;PMS5003;46462;32.608;-117.032;2024-01-25T15:54:35;11;11;
60645;PMS5003;46462;32.608;-117.032;2024-01-25T15:57:06;13;12;
60645;PMS5003;46462;32.608;-117.032;2024-01-25T15:59:37;14;12;
60645;PMS5003;46462;32.608;-117.032;2024-01-25T16:02:07;16;15;
60645;PMS5003;46462;32.608;-117.032;2024-01-25T16:04:38;16;16;
60645;PMS5003;46462;32.608;-117.032;2024-01-25T16:07:08;22;18;
60645;PMS5003;46462;32.608;-117.032;2024-01-25T16:09:39;19;18;
60645;PMS5003;46462;32.608;-117.032;2024-01-25T16:12:09;19;18;
60645;PMS5003;46462;32.608;-117.032;2024-01-25T16:14:40;20;18;
60645;PMS5003;46462;32.608;-117.032;2024-01-25T16:17:11;16;15;
60645;PMS5003;46462;32.608;-117.032;2024-01-25T16:19:41;16;15;
60645;PMS5003;46462;32.608;-117.032;2024-01-25T16:22:12;18;16;